sensor_id;sensor_type;location;lat;lon;timestamp;P1;durP1;ratioP1;P2;durP2;ratioP2
29314;SDS011;16320;53.954;9.506;2023-07-13T00:01:19;12.80;;;4.57;;
29314;SDS011;16320;53.954;9.506;2023-07-13T00:04:25;10.35;;;4.25;;
29314;SDS011;16320;53.954;9.506;2023-07-13T00:07:30;7.90;;;4.15;;
29314;SDS011;16320;53.954;9.506;2023-07-13T00:10:39;7.05;;;4.05;;
29314;SDS011;16320;53.954;9.506;2023-07-13T00:13:44;7.97;;;4.13;;
29314;SDS011;16320;53.954;9.506;2023-07-13T00:16:49;10.50;;;5.05;;
29314;SDS011;16320;53.954;9.506;2023-07-13T00:19:54;7.70;;;4.55;;
29314;SDS011;16320;53.954;9.506;2023-07-13T00:23:00;8.55;;;4.85;;
29314;SDS011;16320;53.954;9.506;2023-07-13T00:26:07;7.75;;;4.88;;
29314;SDS011;16320;53.954;9.506;2023-07-13T00:29:14;7.68;;;4.18;;
29314;SDS011;16320;53.954;9.506;2023-07-13T00:32:20;9.18;;;4.65;;
29314;SDS011;16320;53.954;9.506;2023-07-13T00:35:25;13.02;;;4.63;;
29314;SDS011;16320;53.954;9.506;2023-07-13T00:38:33;8.88;;;6.00;;
29314;SDS011;16320;53.954;9.506;2023-07-13T00:41:37;10.00;;;6.38;;
29314;SDS011;16320;53.954;9.506;2023-07-13T00:45:00;10.90;;;6.70;;
29314;SDS011;16320;53.954;9.506;2023-07-13T00:48:17;12.80;;;6.60;;
29314;SDS011;16320;53.954;9.506;2023-07-13T00:51:45;10.45;;;6.93;;
29314;SDS011;16320;53.954;9.506;2023-07-13T00:54:57;13.07;;;7.15;;
29314;SDS011;16320;53.954;9.506;2023-07-13T00:58:03;11.65;;;6.78;;
29314;SDS011;16320;53.954;9.506;2023-07-13T01:01:11;10.10;;;7.00;;
29314;SDS011;16320;53.954;9.506;2023-07-13T01:04:17;14.65;;;7.82;;
29314;SDS011;16320;53.954;9.506;2023-07-13T01:07:22;8.30;;;6.82;;
29314;SDS011;16320;53.954;9.506;2023-07-13T01:10:55;11.70;;;7.97;;
29314;SDS011;16320;53.954;9.506;2023-07-13T01:14:02;16.00;;;8.45;;
29314;SDS011;16320;53.954;9.506;2023-07-13T01:17:10;14.30;;;8.05;;
29314;SDS011;16320;53.954;9.506;2023-07-13T01:20:15;16.42;;;8.50;;
29314;SDS011;16320;53.954;9.506;2023-07-13T01:23:21;11.75;;;8.38;;
29314;SDS011;16320;53.954;9.506;2023-07-13T01:26:28;18.25;;;8.95;;
29314;SDS011;16320;53.954;9.506;2023-07-13T01:29:35;12.93;;;9.57;;
29314;SDS011;16320;53.954;9.506;2023-07-13T01:32:45;12.68;;;8.63;;
29314;SDS011;16320;53.954;9.506;2023-07-13T01:35:51;12.88;;;8.80;;
29314;SDS011;16320;53.954;9.506;2023-07-13T01:38:55;12.40;;;8.80;;
29314;SDS011;16320;53.954;9.506;2023-07-13T01:42:00;13.50;;;9.00;;
29314;SDS011;16320;53.954;9.506;2023-07-13T01:45:06;11.38;;;9.93;;
29314;SDS011;16320;53.954;9.506;2023-07-13T01:48:12;10.63;;;9.13;;
29314;SDS011;16320;53.954;9.506;2023-07-13T01:51:17;15.40;;;10.38;;
29314;SDS011;16320;53.954;9.506;2023-07-13T01:54:23;16.88;;;12.13;;
29314;SDS011;16320;53.954;9.506;2023-07-13T01:57:28;18.02;;;12.20;;
29314;SDS011;16320;53.954;9.506;2023-07-13T02:00:34;18.35;;;12.13;;
29314;SDS011;16320;53.954;9.506;2023-07-13T02:03:39;20.30;;;13.32;;
29314;SDS011;16320;53.954;9.506;2023-07-13T02:06:45;23.23;;;13.52;;
29314;SDS011;16320;53.954;9.506;2023-07-13T02:09:50;18.85;;;13.55;;
29314;SDS011;16320;53.954;9.506;2023-07-13T02:12:54;23.38;;;14.90;;
29314;SDS011;16320;53.954;9.506;2023-07-13T02:15:58;27.83;;;16.23;;
29314;SDS011;16320;53.954;9.506;2023-07-13T02:19:03;23.58;;;15.35;;
29314;SDS011;16320;53.954;9.506;2023-07-13T02:22:09;24.70;;;16.27;;
29314;SDS011;16320;53.954;9.506;2023-07-13T02:25:14;21.52;;;15.27;;
29314;SDS011;16320;53.954;9.506;2023-07-13T02:28:19;26.35;;;17.80;;
29314;SDS011;16320;53.954;9.506;2023-07-13T02:31:23;30.30;;;17.63;;
29314;SDS011;16320;53.954;9.506;2023-07-13T02:34:28;29.70;;;17.58;;
29314;SDS011;16320;53.954;9.506;2023-07-13T02:37:36;25.10;;;17.83;;
29314;SDS011;16320;53.954;9.506;2023-07-13T02:40:40;28.52;;;18.05;;
29314;SDS011;16320;53.954;9.506;2023-07-13T02:43:45;31.77;;;18.60;;
29314;SDS011;16320;53.954;9.506;2023-07-13T02:46:49;28.95;;;18.48;;
29314;SDS011;16320;53.954;9.506;2023-07-13T02:49:54;28.90;;;18.30;;
29314;SDS011;16320;53.954;9.506;2023-07-13T02:52:59;26.48;;;17.80;;
29314;SDS011;16320;53.954;9.506;2023-07-13T02:56:03;21.42;;;17.02;;
29314;SDS011;16320;53.954;9.506;2023-07-13T02:59:09;25.25;;;17.77;;
29314;SDS011;16320;53.954;9.506;2023-07-13T03:02:15;28.35;;;16.27;;
29314;SDS011;16320;53.954;9.506;2023-07-13T03:05:19;21.42;;;16.05;;
29314;SDS011;16320;53.954;9.506;2023-07-13T03:08:25;19.30;;;15.63;;
29314;SDS011;16320;53.954;9.506;2023-07-13T03:11:30;24.98;;;16.75;;
29314;SDS011;16320;53.954;9.506;2023-07-13T03:14:35;31.42;;;15.68;;
29314;SDS011;16320;53.954;9.506;2023-07-13T03:17:39;23.02;;;14.20;;
29314;SDS011;16320;53.954;9.506;2023-07-13T03:20:43;24.25;;;14.60;;
29314;SDS011;16320;53.954;9.506;2023-07-13T03:23:49;18.15;;;13.68;;
29314;SDS011;16320;53.954;9.506;2023-07-13T03:26:53;20.95;;;13.38;;
29314;SDS011;16320;53.954;9.506;2023-07-13T03:33:01;18.48;;;12.63;;
29314;SDS011;16320;53.954;9.506;2023-07-13T03:36:13;21.10;;;11.80;;
29314;SDS011;16320;53.954;9.506;2023-07-13T03:39:25;19.83;;;12.10;;
29314;SDS011;16320;53.954;9.506;2023-07-13T03:42:30;15.15;;;11.18;;
29314;SDS011;16320;53.954;9.506;2023-07-13T03:45:34;21.13;;;11.60;;
29314;SDS011;16320;53.954;9.506;2023-07-13T03:48:41;19.58;;;10.45;;
29314;SDS011;16320;53.954;9.506;2023-07-13T03:51:48;16.08;;;10.65;;
29314;SDS011;16320;53.954;9.506;2023-07-13T03:54:57;18.65;;;10.55;;
29314;SDS011;16320;53.954;9.506;2023-07-13T04:01:40;18.00;;;10.43;;
29314;SDS011;16320;53.954;9.506;2023-07-13T04:04:44;12.60;;;9.88;;
29314;SDS011;16320;53.954;9.506;2023-07-13T04:07:48;16.08;;;9.70;;
29314;SDS011;16320;53.954;9.506;2023-07-13T04:10:54;17.10;;;9.95;;
29314;SDS011;16320;53.954;9.506;2023-07-13T04:13:59;14.10;;;9.93;;
29314;SDS011;16320;53.954;9.506;2023-07-13T04:17:04;17.98;;;9.25;;
29314;SDS011;16320;53.954;9.506;2023-07-13T04:20:09;16.13;;;9.27;;
29314;SDS011;16320;53.954;9.506;2023-07-13T04:23:15;18.52;;;9.18;;
29314;SDS011;16320;53.954;9.506;2023-07-13T04:26:21;17.15;;;8.13;;
29314;SDS011;16320;53.954;9.506;2023-07-13T04:29:28;11.95;;;7.35;;
29314;SDS011;16320;53.954;9.506;2023-07-13T04:32:34;13.02;;;6.75;;
29314;SDS011;16320;53.954;9.506;2023-07-13T04:35:38;17.52;;;6.93;;
29314;SDS011;16320;53.954;9.506;2023-07-13T04:38:43;10.55;;;6.32;;
29314;SDS011;16320;53.954;9.506;2023-07-13T04:41:48;14.38;;;6.72;;
29314;SDS011;16320;53.954;9.506;2023-07-13T04:44:52;15.90;;;6.45;;
29314;SDS011;16320;53.954;9.506;2023-07-13T04:47:57;12.55;;;6.22;;
29314;SDS011;16320;53.954;9.506;2023-07-13T04:51:02;10.52;;;6.30;;
29314;SDS011;16320;53.954;9.506;2023-07-13T04:54:07;12.82;;;5.90;;
29314;SDS011;16320;53.954;9.506;2023-07-13T04:57:11;18.15;;;6.00;;
29314;SDS011;16320;53.954;9.506;2023-07-13T05:00:16;9.57;;;6.13;;
29314;SDS011;16320;53.954;9.506;2023-07-13T05:03:21;13.13;;;6.10;;
29314;SDS011;16320;53.954;9.506;2023-07-13T05:06:26;16.23;;;5.75;;
29314;SDS011;16320;53.954;9.506;2023-07-13T05:09:32;17.55;;;5.93;;
29314;SDS011;16320;53.954;9.506;2023-07-13T05:12:36;20.58;;;5.68;;
29314;SDS011;16320;53.954;9.506;2023-07-13T05:15:41;14.05;;;5.53;;
29314;SDS011;16320;53.954;9.506;2023-07-13T05:18:45;11.90;;;4.95;;
29314;SDS011;16320;53.954;9.506;2023-07-13T05:21:49;16.92;;;4.95;;
29314;SDS011;16320;53.954;9.506;2023-07-13T05:24:54;15.18;;;5.28;;
29314;SDS011;16320;53.954;9.506;2023-07-13T05:27:59;16.17;;;5.32;;
29314;SDS011;16320;53.954;9.506;2023-07-13T05:31:03;16.15;;;4.60;;
29314;SDS011;16320;53.954;9.506;2023-07-13T05:34:10;16.45;;;5.00;;
29314;SDS011;16320;53.954;9.506;2023-07-13T05:37:15;23.70;;;7.18;;
29314;SDS011;16320;53.954;9.506;2023-07-13T05:40:20;20.17;;;5.68;;
29314;SDS011;16320;53.954;9.506;2023-07-13T05:43:24;18.40;;;4.82;;
29314;SDS011;16320;53.954;9.506;2023-07-13T05:46:29;14.20;;;4.95;;
29314;SDS011;16320;53.954;9.506;2023-07-13T05:49:34;14.50;;;4.65;;
29314;SDS011;16320;53.954;9.506;2023-07-13T05:52:38;14.77;;;5.20;;
29314;SDS011;16320;53.954;9.506;2023-07-13T05:55:43;14.82;;;4.45;;
29314;SDS011;16320;53.954;9.506;2023-07-13T05:58:51;11.48;;;5.05;;
29314;SDS011;16320;53.954;9.506;2023-07-13T06:01:56;16.42;;;5.72;;
29314;SDS011;16320;53.954;9.506;2023-07-13T06:05:01;19.60;;;5.20;;
29314;SDS011;16320;53.954;9.506;2023-07-13T06:08:06;16.92;;;5.72;;
29314;SDS011;16320;53.954;9.506;2023-07-13T06:14:28;19.58;;;4.80;;
29314;SDS011;16320;53.954;9.506;2023-07-13T06:17:34;15.43;;;4.40;;
29314;SDS011;16320;53.954;9.506;2023-07-13T06:20:38;16.95;;;4.53;;
29314;SDS011;16320;53.954;9.506;2023-07-13T06:23:43;16.83;;;5.20;;
29314;SDS011;16320;53.954;9.506;2023-07-13T06:26:48;13.88;;;4.13;;
29314;SDS011;16320;53.954;9.506;2023-07-13T06:29:52;13.65;;;4.32;;
29314;SDS011;16320;53.954;9.506;2023-07-13T06:32:58;23.85;;;4.25;;
29314;SDS011;16320;53.954;9.506;2023-07-13T06:36:03;15.02;;;3.60;;
29314;SDS011;16320;53.954;9.506;2023-07-13T06:39:09;13.27;;;3.67;;
29314;SDS011;16320;53.954;9.506;2023-07-13T06:42:15;17.88;;;3.80;;
29314;SDS011;16320;53.954;9.506;2023-07-13T06:45:21;16.27;;;3.50;;
29314;SDS011;16320;53.954;9.506;2023-07-13T06:48:26;11.32;;;2.95;;
29314;SDS011;16320;53.954;9.506;2023-07-13T06:51:32;12.18;;;3.28;;
29314;SDS011;16320;53.954;9.506;2023-07-13T06:54:36;9.63;;;3.08;;
29314;SDS011;16320;53.954;9.506;2023-07-13T06:57:40;10.43;;;3.53;;
29314;SDS011;16320;53.954;9.506;2023-07-13T07:00:45;11.32;;;3.35;;
29314;SDS011;16320;53.954;9.506;2023-07-13T07:03:50;16.30;;;3.08;;
29314;SDS011;16320;53.954;9.506;2023-07-13T07:06:54;10.82;;;2.85;;
29314;SDS011;16320;53.954;9.506;2023-07-13T07:10:02;16.10;;;4.47;;
29314;SDS011;16320;53.954;9.506;2023-07-13T07:13:07;13.73;;;3.90;;
29314;SDS011;16320;53.954;9.506;2023-07-13T07:16:12;14.05;;;4.10;;
29314;SDS011;16320;53.954;9.506;2023-07-13T07:19:16;13.50;;;3.70;;
29314;SDS011;16320;53.954;9.506;2023-07-13T07:22:21;14.95;;;3.20;;
29314;SDS011;16320;53.954;9.506;2023-07-13T07:25:26;15.20;;;3.75;;
29314;SDS011;16320;53.954;9.506;2023-07-13T07:28:31;9.88;;;3.15;;
29314;SDS011;16320;53.954;9.506;2023-07-13T07:31:38;10.30;;;3.33;;
29314;SDS011;16320;53.954;9.506;2023-07-13T07:34:47;14.68;;;3.40;;
29314;SDS011;16320;53.954;9.506;2023-07-13T07:37:52;9.65;;;3.30;;
29314;SDS011;16320;53.954;9.506;2023-07-13T07:40:56;11.15;;;2.85;;
29314;SDS011;16320;53.954;9.506;2023-07-13T07:44:04;16.98;;;3.20;;
29314;SDS011;16320;53.954;9.506;2023-07-13T07:47:11;10.88;;;2.90;;
29314;SDS011;16320;53.954;9.506;2023-07-13T07:50:15;15.05;;;3.13;;
29314;SDS011;16320;53.954;9.506;2023-07-13T07:53:20;11.32;;;3.42;;
29314;SDS011;16320;53.954;9.506;2023-07-13T07:56:24;9.63;;;2.80;;
29314;SDS011;16320;53.954;9.506;2023-07-13T07:59:32;8.85;;;2.40;;
29314;SDS011;16320;53.954;9.506;2023-07-13T08:02:40;13.48;;;3.63;;
29314;SDS011;16320;53.954;9.506;2023-07-13T08:06:05;13.15;;;3.60;;
29314;SDS011;16320;53.954;9.506;2023-07-13T08:09:13;11.20;;;3.20;;
29314;SDS011;16320;53.954;9.506;2023-07-13T08:12:18;10.88;;;2.90;;
29314;SDS011;16320;53.954;9.506;2023-07-13T08:18:47;8.80;;;2.78;;
29314;SDS011;16320;53.954;9.506;2023-07-13T08:21:51;12.00;;;2.97;;
29314;SDS011;16320;53.954;9.506;2023-07-13T08:24:56;17.83;;;3.70;;
29314;SDS011;16320;53.954;9.506;2023-07-13T08:28:01;14.93;;;4.05;;
29314;SDS011;16320;53.954;9.506;2023-07-13T08:31:07;11.00;;;2.70;;
29314;SDS011;16320;53.954;9.506;2023-07-13T08:34:13;10.95;;;3.22;;
29314;SDS011;16320;53.954;9.506;2023-07-13T08:37:20;13.20;;;3.22;;
29314;SDS011;16320;53.954;9.506;2023-07-13T08:40:25;9.88;;;2.80;;
29314;SDS011;16320;53.954;9.506;2023-07-13T08:43:35;13.02;;;3.80;;
29314;SDS011;16320;53.954;9.506;2023-07-13T08:46:41;9.73;;;3.13;;
29314;SDS011;16320;53.954;9.506;2023-07-13T08:49:49;12.52;;;2.80;;
29314;SDS011;16320;53.954;9.506;2023-07-13T08:52:54;12.68;;;3.40;;
29314;SDS011;16320;53.954;9.506;2023-07-13T08:56:00;12.00;;;2.53;;
29314;SDS011;16320;53.954;9.506;2023-07-13T08:59:13;9.45;;;2.53;;
29314;SDS011;16320;53.954;9.506;2023-07-13T09:02:26;9.98;;;3.20;;
29314;SDS011;16320;53.954;9.506;2023-07-13T09:05:58;6.90;;;2.70;;
29314;SDS011;16320;53.954;9.506;2023-07-13T09:09:13;13.38;;;3.10;;
29314;SDS011;16320;53.954;9.506;2023-07-13T09:12:48;11.68;;;2.65;;
29314;SDS011;16320;53.954;9.506;2023-07-13T09:16:20;7.57;;;2.67;;
29314;SDS011;16320;53.954;9.506;2023-07-13T09:19:30;11.15;;;2.30;;
29314;SDS011;16320;53.954;9.506;2023-07-13T09:22:39;8.02;;;2.35;;
29314;SDS011;16320;53.954;9.506;2023-07-13T09:25:47;7.60;;;1.95;;
29314;SDS011;16320;53.954;9.506;2023-07-13T09:29:01;13.00;;;2.55;;
29314;SDS011;16320;53.954;9.506;2023-07-13T09:32:19;9.18;;;2.40;;
29314;SDS011;16320;53.954;9.506;2023-07-13T09:35:28;8.02;;;1.88;;
29314;SDS011;16320;53.954;9.506;2023-07-13T09:38:34;3.85;;;0.80;;
29314;SDS011;16320;53.954;9.506;2023-07-13T09:41:47;3.30;;;0.77;;
29314;SDS011;16320;53.954;9.506;2023-07-13T09:45:29;2.28;;;0.65;;
29314;SDS011;16320;53.954;9.506;2023-07-13T09:48:36;1.30;;;0.70;;
29314;SDS011;16320;53.954;9.506;2023-07-13T09:51:41;3.17;;;0.63;;
29314;SDS011;16320;53.954;9.506;2023-07-13T09:54:49;4.63;;;0.88;;
29314;SDS011;16320;53.954;9.506;2023-07-13T09:57:57;3.92;;;1.00;;
29314;SDS011;16320;53.954;9.506;2023-07-13T10:01:06;3.17;;;0.70;;
29314;SDS011;16320;53.954;9.506;2023-07-13T10:04:13;12.63;;;0.65;;
29314;SDS011;16320;53.954;9.506;2023-07-13T10:07:22;3.28;;;0.68;;
29314;SDS011;16320;53.954;9.506;2023-07-13T10:10:33;3.50;;;0.85;;
29314;SDS011;16320;53.954;9.506;2023-07-13T10:13:43;2.10;;;0.60;;
29314;SDS011;16320;53.954;9.506;2023-07-13T10:16:58;3.47;;;0.90;;
29314;SDS011;16320;53.954;9.506;2023-07-13T10:20:07;5.30;;;0.80;;
29314;SDS011;16320;53.954;9.506;2023-07-13T10:23:19;4.32;;;0.77;;
29314;SDS011;16320;53.954;9.506;2023-07-13T10:26:37;3.85;;;0.68;;
29314;SDS011;16320;53.954;9.506;2023-07-13T10:30:09;4.50;;;0.80;;
29314;SDS011;16320;53.954;9.506;2023-07-13T10:33:23;2.45;;;0.63;;
29314;SDS011;16320;53.954;9.506;2023-07-13T10:36:38;6.25;;;0.75;;
29314;SDS011;16320;53.954;9.506;2023-07-13T10:39:51;5.95;;;0.82;;
29314;SDS011;16320;53.954;9.506;2023-07-13T10:42:58;3.13;;;0.98;;
29314;SDS011;16320;53.954;9.506;2023-07-13T10:46:10;5.72;;;0.93;;
29314;SDS011;16320;53.954;9.506;2023-07-13T10:49:18;6.28;;;1.30;;
29314;SDS011;16320;53.954;9.506;2023-07-13T10:52:41;5.50;;;1.15;;
29314;SDS011;16320;53.954;9.506;2023-07-13T10:55:59;4.63;;;1.37;;
29314;SDS011;16320;53.954;9.506;2023-07-13T10:59:24;6.32;;;1.52;;
29314;SDS011;16320;53.954;9.506;2023-07-13T11:02:31;7.53;;;1.98;;
29314;SDS011;16320;53.954;9.506;2023-07-13T11:05:35;8.60;;;1.80;;
29314;SDS011;16320;53.954;9.506;2023-07-13T11:11:51;6.85;;;1.63;;
29314;SDS011;16320;53.954;9.506;2023-07-13T11:15:04;7.95;;;1.48;;
29314;SDS011;16320;53.954;9.506;2023-07-13T11:18:22;6.32;;;1.52;;
29314;SDS011;16320;53.954;9.506;2023-07-13T11:21:29;9.88;;;1.60;;
29314;SDS011;16320;53.954;9.506;2023-07-13T11:24:52;5.30;;;1.30;;
29314;SDS011;16320;53.954;9.506;2023-07-13T11:28:25;8.35;;;1.48;;
29314;SDS011;16320;53.954;9.506;2023-07-13T11:31:34;6.70;;;1.20;;
29314;SDS011;16320;53.954;9.506;2023-07-13T11:34:39;13.57;;;1.90;;
29314;SDS011;16320;53.954;9.506;2023-07-13T11:37:44;5.30;;;1.15;;
29314;SDS011;16320;53.954;9.506;2023-07-13T11:40:51;3.05;;;0.73;;
29314;SDS011;16320;53.954;9.506;2023-07-13T11:44:06;2.88;;;0.80;;
29314;SDS011;16320;53.954;9.506;2023-07-13T11:47:40;5.30;;;0.73;;
29314;SDS011;16320;53.954;9.506;2023-07-13T11:50:56;7.18;;;1.00;;
29314;SDS011;16320;53.954;9.506;2023-07-13T11:54:33;8.20;;;1.00;;
29314;SDS011;16320;53.954;9.506;2023-07-13T11:57:59;8.32;;;1.88;;
29314;SDS011;16320;53.954;9.506;2023-07-13T12:01:05;10.52;;;2.17;;
29314;SDS011;16320;53.954;9.506;2023-07-13T12:04:27;4.80;;;1.00;;
29314;SDS011;16320;53.954;9.506;2023-07-13T12:07:36;3.40;;;1.27;;
29314;SDS011;16320;53.954;9.506;2023-07-13T12:10:42;11.68;;;1.48;;
29314;SDS011;16320;53.954;9.506;2023-07-13T12:13:46;12.40;;;1.58;;
29314;SDS011;16320;53.954;9.506;2023-07-13T12:16:51;6.60;;;1.08;;
29314;SDS011;16320;53.954;9.506;2023-07-13T12:19:57;3.67;;;0.65;;
29314;SDS011;16320;53.954;9.506;2023-07-13T12:23:04;4.18;;;1.10;;
29314;SDS011;16320;53.954;9.506;2023-07-13T12:26:23;5.40;;;1.13;;
29314;SDS011;16320;53.954;9.506;2023-07-13T12:29:28;4.88;;;0.98;;
29314;SDS011;16320;53.954;9.506;2023-07-13T12:32:33;7.15;;;1.00;;
29314;SDS011;16320;53.954;9.506;2023-07-13T12:35:56;6.85;;;1.00;;
29314;SDS011;16320;53.954;9.506;2023-07-13T12:39:03;3.78;;;0.98;;
29314;SDS011;16320;53.954;9.506;2023-07-13T12:42:23;8.45;;;1.10;;
29314;SDS011;16320;53.954;9.506;2023-07-13T12:45:32;7.40;;;1.10;;
29314;SDS011;16320;53.954;9.506;2023-07-13T12:48:38;6.22;;;1.17;;
29314;SDS011;16320;53.954;9.506;2023-07-13T12:51:58;8.70;;;1.40;;
29314;SDS011;16320;53.954;9.506;2023-07-13T12:55:07;7.82;;;1.60;;
29314;SDS011;16320;53.954;9.506;2023-07-13T13:01:34;9.30;;;1.35;;
29314;SDS011;16320;53.954;9.506;2023-07-13T13:04:42;9.82;;;1.60;;
29314;SDS011;16320;53.954;9.506;2023-07-13T13:07:47;6.60;;;1.52;;
29314;SDS011;16320;53.954;9.506;2023-07-13T13:10:52;9.15;;;1.70;;
29314;SDS011;16320;53.954;9.506;2023-07-13T13:13:56;5.55;;;1.52;;
29314;SDS011;16320;53.954;9.506;2023-07-13T13:17:01;7.80;;;2.17;;
29314;SDS011;16320;53.954;9.506;2023-07-13T13:20:16;9.60;;;2.30;;
29314;SDS011;16320;53.954;9.506;2023-07-13T13:23:24;7.25;;;2.00;;
29314;SDS011;16320;53.954;9.506;2023-07-13T13:26:29;5.68;;;2.60;;
29314;SDS011;16320;53.954;9.506;2023-07-13T13:29:36;12.30;;;3.20;;
29314;SDS011;16320;53.954;9.506;2023-07-13T13:32:44;50.92;;;27.10;;
29314;SDS011;16320;53.954;9.506;2023-07-13T13:35:50;5.47;;;2.70;;
29314;SDS011;16320;53.954;9.506;2023-07-13T13:38:55;4.15;;;2.15;;
29314;SDS011;16320;53.954;9.506;2023-07-13T13:41:59;7.68;;;2.03;;
29314;SDS011;16320;53.954;9.506;2023-07-13T13:45:05;11.60;;;5.60;;
29314;SDS011;16320;53.954;9.506;2023-07-13T13:48:13;7.80;;;2.53;;
29314;SDS011;16320;53.954;9.506;2023-07-13T13:51:21;9.27;;;2.08;;
29314;SDS011;16320;53.954;9.506;2023-07-13T13:54:28;10.93;;;2.95;;
29314;SDS011;16320;53.954;9.506;2023-07-13T13:57:32;11.20;;;2.88;;
29314;SDS011;16320;53.954;9.506;2023-07-13T14:00:38;10.93;;;3.40;;
29314;SDS011;16320;53.954;9.506;2023-07-13T14:03:45;7.07;;;2.47;;
29314;SDS011;16320;53.954;9.506;2023-07-13T14:06:51;9.60;;;3.05;;
29314;SDS011;16320;53.954;9.506;2023-07-13T14:09:56;11.07;;;3.03;;
29314;SDS011;16320;53.954;9.506;2023-07-13T14:13:03;7.55;;;2.25;;
29314;SDS011;16320;53.954;9.506;2023-07-13T14:16:15;6.90;;;2.10;;
29314;SDS011;16320;53.954;9.506;2023-07-13T14:19:23;9.07;;;1.90;;
29314;SDS011;16320;53.954;9.506;2023-07-13T14:22:28;9.70;;;2.08;;
29314;SDS011;16320;53.954;9.506;2023-07-13T14:25:33;8.75;;;1.88;;
29314;SDS011;16320;53.954;9.506;2023-07-13T14:28:37;8.68;;;2.22;;
29314;SDS011;16320;53.954;9.506;2023-07-13T14:31:48;10.32;;;2.33;;
29314;SDS011;16320;53.954;9.506;2023-07-13T14:34:53;4.63;;;1.20;;
29314;SDS011;16320;53.954;9.506;2023-07-13T14:37:58;2.67;;;1.23;;
29314;SDS011;16320;53.954;9.506;2023-07-13T14:41:04;6.50;;;1.38;;
29314;SDS011;16320;53.954;9.506;2023-07-13T14:44:12;4.25;;;1.10;;
29314;SDS011;16320;53.954;9.506;2023-07-13T14:47:18;8.85;;;1.23;;
29314;SDS011;16320;53.954;9.506;2023-07-13T14:50:32;5.68;;;1.00;;
29314;SDS011;16320;53.954;9.506;2023-07-13T14:53:39;5.20;;;1.20;;
29314;SDS011;16320;53.954;9.506;2023-07-13T14:56:43;6.00;;;1.58;;
29314;SDS011;16320;53.954;9.506;2023-07-13T14:59:48;8.18;;;1.27;;
29314;SDS011;16320;53.954;9.506;2023-07-13T15:02:53;5.60;;;0.90;;
29314;SDS011;16320;53.954;9.506;2023-07-13T15:06:02;6.88;;;1.00;;
29314;SDS011;16320;53.954;9.506;2023-07-13T15:09:08;5.60;;;1.23;;
29314;SDS011;16320;53.954;9.506;2023-07-13T15:12:15;5.30;;;1.25;;
29314;SDS011;16320;53.954;9.506;2023-07-13T15:15:20;10.75;;;1.63;;
29314;SDS011;16320;53.954;9.506;2023-07-13T15:18:28;4.85;;;1.20;;
29314;SDS011;16320;53.954;9.506;2023-07-13T15:21:33;6.00;;;1.38;;
29314;SDS011;16320;53.954;9.506;2023-07-13T15:24:38;2.72;;;0.95;;
29314;SDS011;16320;53.954;9.506;2023-07-13T15:27:43;2.20;;;0.70;;
29314;SDS011;16320;53.954;9.506;2023-07-13T15:30:49;4.93;;;0.98;;
29314;SDS011;16320;53.954;9.506;2023-07-13T15:33:55;7.05;;;1.42;;
29314;SDS011;16320;53.954;9.506;2023-07-13T15:37:01;3.50;;;0.73;;
29314;SDS011;16320;53.954;9.506;2023-07-13T15:40:09;3.58;;;1.00;;
29314;SDS011;16320;53.954;9.506;2023-07-13T15:43:17;4.38;;;1.17;;
29314;SDS011;16320;53.954;9.506;2023-07-13T15:46:23;7.10;;;1.00;;
29314;SDS011;16320;53.954;9.506;2023-07-13T15:49:30;4.25;;;0.85;;
29314;SDS011;16320;53.954;9.506;2023-07-13T15:52:34;3.88;;;0.77;;
29314;SDS011;16320;53.954;9.506;2023-07-13T15:55:39;6.90;;;1.27;;
29314;SDS011;16320;53.954;9.506;2023-07-13T15:58:44;7.90;;;1.35;;
29314;SDS011;16320;53.954;9.506;2023-07-13T16:01:48;6.63;;;1.05;;
29314;SDS011;16320;53.954;9.506;2023-07-13T16:04:53;4.53;;;1.35;;
29314;SDS011;16320;53.954;9.506;2023-07-13T16:07:58;4.38;;;1.48;;
29314;SDS011;16320;53.954;9.506;2023-07-13T16:11:04;7.60;;;1.20;;
29314;SDS011;16320;53.954;9.506;2023-07-13T16:14:11;13.23;;;2.30;;
29314;SDS011;16320;53.954;9.506;2023-07-13T16:17:18;5.10;;;1.48;;
29314;SDS011;16320;53.954;9.506;2023-07-13T16:20:24;5.50;;;1.20;;
29314;SDS011;16320;53.954;9.506;2023-07-13T16:23:29;4.70;;;1.23;;
29314;SDS011;16320;53.954;9.506;2023-07-13T16:26:36;6.50;;;1.25;;
29314;SDS011;16320;53.954;9.506;2023-07-13T16:29:46;4.38;;;1.00;;
29314;SDS011;16320;53.954;9.506;2023-07-13T16:33:04;6.00;;;0.82;;
29314;SDS011;16320;53.954;9.506;2023-07-13T16:36:28;9.50;;;0.90;;
29314;SDS011;16320;53.954;9.506;2023-07-13T16:39:37;2.88;;;1.25;;
29314;SDS011;16320;53.954;9.506;2023-07-13T16:42:42;7.03;;;1.10;;
29314;SDS011;16320;53.954;9.506;2023-07-13T16:45:48;4.68;;;1.10;;
29314;SDS011;16320;53.954;9.506;2023-07-13T16:48:54;4.55;;;1.02;;
29314;SDS011;16320;53.954;9.506;2023-07-13T16:51:59;3.50;;;1.38;;
29314;SDS011;16320;53.954;9.506;2023-07-13T16:55:11;4.65;;;1.00;;
29314;SDS011;16320;53.954;9.506;2023-07-13T16:58:27;8.88;;;1.70;;
29314;SDS011;16320;53.954;9.506;2023-07-13T17:01:34;3.58;;;1.00;;
29314;SDS011;16320;53.954;9.506;2023-07-13T17:04:39;5.18;;;1.10;;
29314;SDS011;16320;53.954;9.506;2023-07-13T17:07:47;2.67;;;0.98;;
29314;SDS011;16320;53.954;9.506;2023-07-13T17:10:59;10.65;;;1.50;;
29314;SDS011;16320;53.954;9.506;2023-07-13T17:14:12;5.60;;;1.00;;
29314;SDS011;16320;53.954;9.506;2023-07-13T17:17:36;3.30;;;0.80;;
29314;SDS011;16320;53.954;9.506;2023-07-13T17:20:46;10.38;;;2.00;;
29314;SDS011;16320;53.954;9.506;2023-07-13T17:23:51;3.30;;;0.98;;
29314;SDS011;16320;53.954;9.506;2023-07-13T17:26:56;3.50;;;1.48;;
29314;SDS011;16320;53.954;9.506;2023-07-13T17:30:01;6.30;;;1.30;;
29314;SDS011;16320;53.954;9.506;2023-07-13T17:33:07;8.38;;;1.67;;
29314;SDS011;16320;53.954;9.506;2023-07-13T17:36:30;6.40;;;1.05;;
29314;SDS011;16320;53.954;9.506;2023-07-13T17:39:38;7.32;;;1.70;;
29314;SDS011;16320;53.954;9.506;2023-07-13T17:42:44;5.65;;;1.23;;
29314;SDS011;16320;53.954;9.506;2023-07-13T17:45:49;6.05;;;1.17;;
29314;SDS011;16320;53.954;9.506;2023-07-13T17:48:56;10.75;;;1.70;;
29314;SDS011;16320;53.954;9.506;2023-07-13T17:52:04;4.13;;;1.00;;
29314;SDS011;16320;53.954;9.506;2023-07-13T17:55:14;3.83;;;0.85;;
29314;SDS011;16320;53.954;9.506;2023-07-13T17:58:23;3.38;;;1.10;;
29314;SDS011;16320;53.954;9.506;2023-07-13T18:01:28;4.05;;;1.77;;
29314;SDS011;16320;53.954;9.506;2023-07-13T18:04:35;6.13;;;1.42;;
29314;SDS011;16320;53.954;9.506;2023-07-13T18:07:41;6.05;;;1.38;;
29314;SDS011;16320;53.954;9.506;2023-07-13T18:10:45;6.30;;;1.27;;
29314;SDS011;16320;53.954;9.506;2023-07-13T18:13:50;10.70;;;1.20;;
29314;SDS011;16320;53.954;9.506;2023-07-13T18:16:57;4.90;;;1.40;;
29314;SDS011;16320;53.954;9.506;2023-07-13T18:20:09;6.45;;;1.50;;
29314;SDS011;16320;53.954;9.506;2023-07-13T18:23:35;7.68;;;1.50;;
29314;SDS011;16320;53.954;9.506;2023-07-13T18:26:40;5.68;;;1.38;;
29314;SDS011;16320;53.954;9.506;2023-07-13T18:29:44;7.75;;;1.40;;
29314;SDS011;16320;53.954;9.506;2023-07-13T18:32:50;3.88;;;1.30;;
29314;SDS011;16320;53.954;9.506;2023-07-13T18:36:00;7.00;;;1.27;;
29314;SDS011;16320;53.954;9.506;2023-07-13T18:39:12;11.80;;;1.42;;
29314;SDS011;16320;53.954;9.506;2023-07-13T18:42:19;12.90;;;2.17;;
29314;SDS011;16320;53.954;9.506;2023-07-13T18:45:24;4.82;;;1.67;;
29314;SDS011;16320;53.954;9.506;2023-07-13T18:48:31;11.07;;;1.67;;
29314;SDS011;16320;53.954;9.506;2023-07-13T18:51:38;8.38;;;1.60;;
29314;SDS011;16320;53.954;9.506;2023-07-13T18:54:43;5.65;;;1.40;;
29314;SDS011;16320;53.954;9.506;2023-07-13T18:57:49;4.75;;;1.75;;
29314;SDS011;16320;53.954;9.506;2023-07-13T19:00:58;8.75;;;1.60;;
29314;SDS011;16320;53.954;9.506;2023-07-13T19:04:22;6.85;;;1.63;;